createdAt,value
2018-05-16T00:00:23.030Z,0.00
2018-05-16T00:01:23.264Z,0.00
2018-05-16T00:02:23.498Z,0.00
2018-05-16T00:03:23.719Z,0.00
2018-05-16T00:04:23.952Z,0.00
2018-05-16T00:05:24.179Z,0.00
2018-05-16T00:06:24.413Z,0.00
2018-05-16T00:07:24.641Z,0.00
2018-05-16T00:08:24.872Z,0.00
2018-05-16T00:09:25.109Z,0.00
2018-05-16T00:10:25.334Z,0.00
2018-05-16T00:11:25.560Z,0.00
2018-05-16T00:12:25.791Z,0.00
2018-05-16T00:13:26.024Z,0.00
2018-05-16T00:14:26.300Z,0.00
2018-05-16T00:15:26.531Z,0.00
2018-05-16T00:16:26.760Z,0.00
2018-05-16T00:17:26.986Z,0.00
2018-05-16T00:18:27.223Z,0.00
2018-05-16T00:19:27.452Z,0.00
2018-05-16T00:20:27.688Z,0.00
2018-05-16T00:21:27.917Z,0.00
2018-05-16T00:22:28.150Z,0.00
2018-05-16T00:23:28.380Z,0.00
2018-05-16T00:24:28.612Z,0.00
2018-05-16T00:25:28.841Z,0.00
2018-05-16T00:26:29.070Z,0.00
2018-05-16T00:27:29.298Z,0.00
2018-05-16T00:28:29.528Z,0.00
2018-05-16T00:29:29.759Z,0.00
2018-05-16T00:30:29.986Z,0.00
2018-05-16T00:31:30.216Z,0.00
2018-05-16T00:32:30.446Z,0.00
2018-05-16T00:33:30.677Z,0.00
2018-05-16T00:34:30.908Z,0.00
2018-05-16T00:35:31.140Z,0.00
2018-05-16T00:36:31.368Z,0.00
2018-05-16T00:37:31.606Z,0.00
2018-05-16T00:38:31.828Z,0.00
2018-05-16T00:39:32.056Z,0.00
2018-05-16T00:40:32.286Z,0.00
2018-05-16T00:41:32.515Z,0.00
2018-05-16T00:42:32.745Z,0.00
2018-05-16T00:43:32.978Z,0.00
2018-05-16T00:44:33.203Z,0.00
2018-05-16T00:45:33.438Z,0.00
2018-05-16T00:46:33.669Z,0.00
2018-05-16T00:47:33.899Z,0.00
2018-05-16T00:48:34.137Z,0.00
2018-05-16T00:49:34.354Z,0.00
2018-05-16T00:50:34.584Z,0.00
2018-05-16T00:51:34.814Z,0.00
2018-05-16T00:52:35.047Z,0.00
2018-05-16T00:53:35.272Z,0.00
2018-05-16T00:54:35.505Z,0.00
2018-05-16T00:55:35.727Z,0.00
2018-05-16T00:56:35.958Z,0.00
2018-05-16T00:57:36.188Z,0.00
2018-05-16T00:58:36.417Z,0.00
2018-05-16T00:59:36.646Z,0.00
2018-05-16T01:00:36.881Z,0.00
2018-05-16T01:01:37.107Z,0.00
2018-05-16T01:02:37.336Z,0.00
2018-05-16T01:03:37.572Z,0.00
2018-05-16T01:04:37.805Z,0.00
2018-05-16T01:05:38.039Z,0.00
2018-05-16T01:06:38.256Z,0.00
2018-05-16T01:07:38.483Z,0.00
2018-05-16T01:08:38.712Z,0.00
2018-05-16T01:09:38.942Z,0.00
2018-05-16T01:10:39.171Z,0.00
2018-05-16T01:11:39.407Z,0.00
2018-05-16T01:12:39.627Z,0.00
2018-05-16T01:13:39.859Z,0.00
2018-05-16T01:14:40.089Z,0.00
2018-05-16T01:15:40.317Z,0.00
2018-05-16T01:16:40.547Z,0.00
2018-05-16T01:17:40.774Z,0.00
2018-05-16T01:18:41.001Z,0.00
2018-05-16T01:19:41.233Z,0.00
2018-05-16T01:20:41.467Z,0.00
2018-05-16T01:21:41.697Z,0.00
2018-05-16T01:22:41.934Z,0.00
2018-05-16T01:23:42.157Z,0.00
2018-05-16T01:24:42.391Z,0.00
2018-05-16T01:25:42.618Z,0.00
2018-05-16T01:26:42.845Z,0.00
2018-05-16T01:27:43.071Z,0.00
2018-05-16T01:28:43.302Z,0.00
2018-05-16T01:29:43.529Z,0.00
2018-05-16T01:30:43.764Z,0.00
2018-05-16T01:31:43.994Z,0.00
2018-05-16T01:32:44.227Z,0.00
2018-05-16T01:33:44.461Z,0.00
2018-05-16T01:34:44.686Z,0.00
2018-05-16T01:35:44.911Z,0.00
2018-05-16T01:36:45.143Z,0.00
2018-05-16T01:37:45.373Z,0.00
2018-05-16T01:38:45.601Z,0.00
2018-05-16T01:39:45.832Z,0.00
2018-05-16T01:40:46.059Z,0.00
2018-05-16T01:41:46.291Z,0.00
2018-05-16T01:42:46.526Z,0.00
2018-05-16T01:43:46.752Z,0.00
2018-05-16T01:44:46.982Z,0.00
2018-05-16T01:45:47.211Z,0.00
2018-05-16T01:46:47.442Z,0.00
2018-05-16T01:47:47.671Z,0.00
2018-05-16T01:48:47.900Z,0.00
2018-05-16T01:49:48.137Z,0.00
2018-05-16T01:50:48.359Z,0.00
2018-05-16T01:51:48.590Z,0.00
2018-05-16T01:52:48.818Z,0.00
2018-05-16T01:53:49.049Z,0.00
2018-05-16T01:54:49.279Z,0.00
2018-05-16T01:55:49.507Z,0.00
2018-05-16T01:56:49.737Z,0.00
2018-05-16T01:57:49.969Z,0.00
2018-05-16T01:58:50.200Z,0.00
2018-05-16T01:59:50.429Z,0.00
2018-05-16T02:00:50.658Z,0.00
2018-05-16T02:01:50.887Z,0.00
2018-05-16T02:02:51.119Z,0.00
2018-05-16T02:03:51.353Z,0.00
2018-05-16T02:04:51.580Z,0.00
2018-05-16T02:05:51.810Z,0.00
2018-05-16T02:06:52.040Z,0.00
2018-05-16T02:07:52.269Z,0.00
2018-05-16T02:08:52.500Z,0.00
2018-05-16T02:09:52.728Z,0.00
2018-05-16T02:10:52.960Z,0.00
2018-05-16T02:11:53.189Z,0.00
2018-05-16T02:12:53.418Z,0.00
2018-05-16T02:13:53.652Z,0.00
2018-05-16T02:14:53.880Z,0.00
2018-05-16T02:15:54.109Z,0.00
2018-05-16T02:16:54.339Z,0.00
2018-05-16T02:17:54.569Z,0.00
2018-05-16T02:18:54.799Z,0.00
2018-05-16T02:19:55.032Z,0.00
2018-05-16T02:20:55.261Z,0.00
2018-05-16T02:21:55.493Z,0.00
2018-05-16T02:22:55.723Z,0.00
2018-05-16T02:23:55.953Z,0.00
2018-05-16T02:24:56.186Z,0.00
2018-05-16T02:25:56.412Z,0.00
2018-05-16T02:26:56.641Z,0.00
2018-05-16T02:27:56.871Z,0.00
2018-05-16T02:28:57.100Z,0.00
2018-05-16T02:29:57.330Z,0.00
2018-05-16T02:30:57.563Z,0.00
2018-05-16T02:31:57.791Z,0.00
2018-05-16T02:32:58.023Z,0.00
2018-05-16T02:33:58.255Z,0.00
2018-05-16T02:34:58.479Z,0.00
2018-05-16T02:35:58.713Z,0.00
2018-05-16T02:36:58.943Z,0.00
2018-05-16T02:37:59.170Z,0.00
2018-05-16T02:38:59.403Z,0.00
2018-05-16T02:39:59.634Z,0.00
2018-05-16T02:40:59.864Z,0.00
2018-05-16T02:42:00.090Z,0.00
2018-05-16T02:43:00.320Z,0.00
2018-05-16T02:44:00.550Z,0.00
2018-05-16T02:45:00.778Z,0.00
2018-05-16T02:46:01.007Z,0.00
2018-05-16T02:47:01.238Z,0.00
2018-05-16T02:48:01.468Z,0.00
2018-05-16T02:49:01.697Z,0.00
2018-05-16T02:50:01.917Z,0.00
2018-05-16T02:51:02.143Z,0.00
2018-05-16T02:52:02.374Z,0.00
2018-05-16T02:53:02.609Z,0.00
2018-05-16T02:54:02.834Z,4.00
2018-05-16T02:55:03.067Z,4.00
2018-05-16T02:56:03.296Z,0.00
2018-05-16T02:57:03.522Z,0.00
2018-05-16T02:58:03.751Z,4.00
2018-05-16T02:59:03.977Z,4.00
2018-05-16T03:00:04.209Z,4.00
2018-05-16T03:01:04.440Z,4.00
2018-05-16T03:02:04.672Z,8.00
2018-05-16T03:03:04.902Z,4.00
2018-05-16T03:04:05.133Z,8.00
2018-05-16T03:05:05.361Z,8.00
2018-05-16T03:06:05.632Z,8.00
2018-05-16T03:07:05.825Z,8.00
2018-05-16T03:08:06.058Z,4.00
2018-05-16T03:09:06.288Z,4.00
2018-05-16T03:10:06.518Z,4.00
2018-05-16T03:11:06.747Z,4.00
2018-05-16T03:12:06.979Z,4.00
2018-05-16T03:13:07.212Z,8.00
2018-05-16T03:14:07.446Z,4.00
2018-05-16T03:15:07.666Z,8.00
2018-05-16T03:16:07.894Z,12.00
2018-05-16T03:17:08.125Z,12.00
2018-05-16T03:18:08.354Z,20.00
2018-05-16T03:19:08.586Z,36.00
2018-05-16T03:20:08.816Z,48.00
2018-05-16T03:21:09.047Z,64.00
2018-05-16T03:22:09.277Z,76.00
2018-05-16T03:23:09.506Z,88.00
2018-05-16T03:24:09.738Z,96.00
2018-05-16T03:25:09.968Z,100.00
2018-05-16T03:26:10.198Z,100.00
2018-05-16T03:27:10.429Z,104.00
2018-05-16T03:28:10.659Z,108.00
2018-05-16T03:29:10.898Z,116.00
2018-05-16T03:30:11.128Z,128.00
2018-05-16T03:31:11.358Z,144.00
2018-05-16T03:32:11.587Z,144.00
2018-05-16T03:33:11.816Z,164.00
2018-05-16T03:34:12.045Z,192.00
2018-05-16T03:35:12.276Z,232.00
2018-05-16T03:36:12.508Z,284.00
2018-05-16T03:37:12.761Z,328.00
2018-05-16T03:38:12.961Z,368.00
2018-05-16T03:39:13.195Z,392.00
2018-05-16T03:40:13.421Z,416.00
2018-05-16T03:41:13.649Z,436.00
2018-05-16T03:42:13.885Z,456.00
2018-05-16T03:43:14.108Z,472.00
2018-05-16T03:44:14.339Z,472.00
2018-05-16T03:45:14.569Z,468.00
2018-05-16T03:46:14.800Z,460.00
2018-05-16T03:47:15.031Z,456.00
2018-05-16T03:48:15.261Z,452.00
2018-05-16T03:49:15.487Z,452.00
2018-05-16T03:50:15.719Z,452.00
2018-05-16T03:51:15.948Z,468.00
2018-05-16T03:52:16.181Z,504.00
2018-05-16T03:53:16.412Z,564.00
2018-05-16T03:54:16.640Z,620.00
2018-05-16T03:55:16.870Z,660.00
2018-05-16T03:56:17.103Z,696.00
2018-05-16T03:57:17.332Z,752.00
2018-05-16T03:58:17.562Z,804.00
2018-05-16T03:59:17.793Z,840.00
2018-05-16T04:00:18.022Z,844.00
2018-05-16T04:01:18.251Z,820.00
2018-05-16T04:02:18.499Z,796.00
2018-05-16T04:03:18.714Z,772.00
2018-05-16T04:04:18.945Z,772.00
2018-05-16T04:05:19.179Z,800.00
2018-05-16T04:06:19.407Z,856.00
2018-05-16T04:07:19.634Z,908.00
2018-05-16T04:08:19.866Z,924.00
2018-05-16T04:09:20.093Z,940.00
2018-05-16T04:10:20.324Z,960.00
2018-05-16T04:11:20.553Z,952.00
2018-05-16T04:12:20.783Z,948.00
2018-05-16T04:13:21.089Z,916.00
2018-05-16T04:14:21.242Z,888.00
2018-05-16T04:15:21.473Z,928.00
2018-05-16T04:16:21.705Z,1068.00
2018-05-16T04:17:21.937Z,1272.00
2018-05-16T04:18:22.165Z,1492.00
2018-05-16T04:19:22.396Z,1720.00
2018-05-16T04:20:22.638Z,1948.00
2018-05-16T04:21:22.868Z,2136.00
2018-05-16T04:22:23.100Z,2268.00
2018-05-16T04:23:23.330Z,2292.00
2018-05-16T04:24:23.563Z,2244.00
2018-05-16T04:25:23.795Z,2204.00
2018-05-16T04:26:24.022Z,2220.00
2018-05-16T04:27:24.252Z,1928.00
2018-05-16T04:28:24.488Z,1476.00
2018-05-16T04:29:24.716Z,1248.00
2018-05-16T04:30:24.944Z,1312.00
2018-05-16T04:31:25.175Z,1616.00
2018-05-16T04:32:25.411Z,1804.00
2018-05-16T04:33:25.641Z,1832.00
2018-05-16T04:34:25.866Z,1908.00
2018-05-16T04:35:26.165Z,2144.00
2018-05-16T04:36:26.334Z,2460.00
2018-05-16T04:37:26.559Z,2744.00
2018-05-16T04:38:26.789Z,3184.00
2018-05-16T04:39:27.023Z,4432.00
2018-05-16T04:40:27.252Z,4092.00
2018-05-16T04:41:27.484Z,4932.00
2018-05-16T04:42:27.717Z,6488.00
2018-05-16T04:43:27.952Z,8052.00
2018-05-16T04:44:28.172Z,8524.00
2018-05-16T04:45:28.411Z,8176.00
2018-05-16T04:46:28.630Z,6700.00
2018-05-16T04:47:28.863Z,4172.00
2018-05-16T04:48:29.094Z,2524.00
2018-05-16T04:49:29.320Z,2140.00
2018-05-16T04:50:29.550Z,1836.00
2018-05-16T04:51:29.781Z,1656.00
2018-05-16T04:52:30.014Z,1756.00
2018-05-16T04:53:30.245Z,1940.00
2018-05-16T04:54:30.475Z,1972.00
2018-05-16T04:55:30.709Z,1984.00
2018-05-16T04:56:30.937Z,2160.00
2018-05-16T04:57:31.167Z,2752.00
2018-05-16T04:58:31.396Z,3140.00
2018-05-16T04:59:31.627Z,3332.00
2018-05-16T05:00:31.856Z,3172.00
2018-05-16T05:01:32.093Z,2932.00
2018-05-16T05:02:32.320Z,2468.00
2018-05-16T05:03:32.554Z,2188.00
2018-05-16T05:04:32.783Z,2240.00
2018-05-16T05:05:33.020Z,2484.00
2018-05-16T05:06:33.259Z,2648.00
2018-05-16T05:07:33.484Z,2668.00
2018-05-16T05:08:33.717Z,2352.00
2018-05-16T05:09:33.953Z,2100.00
2018-05-16T05:10:34.177Z,1944.00
2018-05-16T05:11:34.411Z,2096.00
2018-05-16T05:12:34.642Z,2224.00
2018-05-16T05:13:34.872Z,2496.00
2018-05-16T05:14:35.105Z,2744.00
2018-05-16T05:15:35.338Z,2976.00
2018-05-16T05:16:35.568Z,3476.00
2018-05-16T05:17:35.798Z,4008.00
2018-05-16T05:18:36.073Z,4356.00
2018-05-16T05:19:36.259Z,4792.00
2018-05-16T05:20:36.487Z,5192.00
2018-05-16T05:21:36.717Z,5952.00
2018-05-16T05:22:36.949Z,6248.00
2018-05-16T05:23:37.182Z,6204.00
2018-05-16T05:24:37.411Z,6516.00
2018-05-16T05:25:37.643Z,7024.00
2018-05-16T05:26:37.875Z,7196.00
2018-05-16T05:27:38.105Z,7592.00
2018-05-16T05:28:38.337Z,6504.00
2018-05-16T05:29:38.566Z,5940.00
2018-05-16T05:30:38.799Z,6156.00
2018-05-16T05:31:39.030Z,4512.00
2018-05-16T05:32:39.263Z,3948.00
2018-05-16T05:33:39.499Z,3320.00
2018-05-16T05:34:39.731Z,2652.00
2018-05-16T05:35:39.966Z,2208.00
2018-05-16T05:36:40.197Z,2008.00
2018-05-16T05:37:40.423Z,2124.00
2018-05-16T05:38:40.657Z,2344.00
2018-05-16T05:39:40.891Z,2476.00
2018-05-16T05:40:41.121Z,2956.00
2018-05-16T05:41:41.362Z,3704.00
2018-05-16T05:42:41.583Z,4456.00
2018-05-16T05:43:41.816Z,5008.00
2018-05-16T05:44:42.049Z,5432.00
2018-05-16T05:45:42.280Z,6016.00
2018-05-16T05:46:42.518Z,6640.00
2018-05-16T05:47:42.741Z,7040.00
2018-05-16T05:48:42.976Z,6952.00
2018-05-16T05:49:43.208Z,6188.00
2018-05-16T05:50:43.438Z,6284.00
2018-05-16T05:51:43.678Z,6712.00
2018-05-16T05:52:43.897Z,7104.00
2018-05-16T05:53:44.128Z,8276.00
2018-05-16T05:54:44.357Z,8452.00
2018-05-16T05:55:44.593Z,8036.00
2018-05-16T05:56:44.825Z,7424.00
2018-05-16T05:57:45.058Z,6952.00
2018-05-16T05:58:45.284Z,7192.00
2018-05-16T05:59:45.521Z,7944.00
2018-05-16T06:00:45.745Z,8816.00
2018-05-16T06:01:45.975Z,11448.00
2018-05-16T06:02:46.202Z,12096.00
2018-05-16T06:03:46.433Z,13336.00
2018-05-16T06:04:46.668Z,13376.00
2018-05-16T06:05:46.900Z,12548.00
2018-05-16T06:06:47.132Z,12220.00
2018-05-16T06:07:47.368Z,11824.00
2018-05-16T06:08:47.598Z,11272.00
2018-05-16T06:09:47.836Z,11316.00
2018-05-16T06:10:48.071Z,10916.00
2018-05-16T06:11:48.311Z,12848.00
2018-05-16T06:12:48.554Z,13416.00
2018-05-16T06:13:48.768Z,11252.00
2018-05-16T06:14:49.000Z,12816.00
2018-05-16T06:15:49.235Z,12460.00
2018-05-16T06:16:49.468Z,10292.00
2018-05-16T06:17:49.699Z,10200.00
2018-05-16T06:18:49.935Z,12872.00
2018-05-16T06:19:50.204Z,12284.00
2018-05-16T06:20:50.401Z,9392.00
2018-05-16T06:21:50.636Z,7968.00
2018-05-16T06:22:50.872Z,7024.00
2018-05-16T06:23:51.108Z,7304.00
2018-05-16T06:24:51.341Z,7000.00
2018-05-16T06:25:51.572Z,7184.00
2018-05-16T06:26:51.810Z,7604.00
2018-05-16T06:27:52.042Z,7740.00
2018-05-16T06:28:52.276Z,7912.00
2018-05-16T06:29:52.508Z,8508.00
2018-05-16T06:30:52.744Z,8760.00
2018-05-16T06:31:52.978Z,9020.00
2018-05-16T06:32:53.213Z,8528.00
2018-05-16T06:33:53.446Z,8912.00
2018-05-16T06:34:53.683Z,8520.00
2018-05-16T06:35:53.915Z,8992.00
2018-05-16T06:36:54.151Z,10096.00
2018-05-16T06:37:54.380Z,10776.00
2018-05-16T06:38:54.615Z,11948.00
2018-05-16T06:39:54.846Z,10988.00
2018-05-16T06:40:55.079Z,11596.00
2018-05-16T06:41:55.313Z,10900.00
2018-05-16T06:42:55.548Z,7072.00
2018-05-16T06:43:55.795Z,6884.00
2018-05-16T06:44:56.011Z,7476.00
2018-05-16T06:45:56.279Z,8500.00
2018-05-16T06:46:56.474Z,8612.00
2018-05-16T06:47:56.709Z,8776.00
2018-05-16T06:48:56.942Z,8896.00
2018-05-16T06:49:57.169Z,8464.00
2018-05-16T06:50:57.401Z,8472.00
2018-05-16T06:51:57.638Z,8180.00
2018-05-16T06:52:57.875Z,8276.00
2018-05-16T06:53:58.107Z,8240.00
2018-05-16T06:54:58.341Z,8156.00
2018-05-16T06:55:58.577Z,8112.00
2018-05-16T06:56:58.805Z,8504.00
2018-05-16T06:57:59.036Z,9616.00
2018-05-16T06:58:59.271Z,9176.00
2018-05-16T06:59:59.504Z,10820.00
2018-05-16T07:00:59.734Z,12276.00
2018-05-16T07:01:59.964Z,11800.00
2018-05-16T07:03:00.198Z,10748.00
2018-05-16T07:04:00.449Z,12824.00
2018-05-16T07:05:00.662Z,13444.00
2018-05-16T07:06:00.895Z,14288.00
2018-05-16T07:07:01.132Z,12504.00
2018-05-16T07:08:01.366Z,14912.00
2018-05-16T07:09:01.592Z,14508.00
2018-05-16T07:10:01.822Z,15552.00
2018-05-16T07:11:02.060Z,14692.00
2018-05-16T07:12:02.293Z,15968.00
2018-05-16T07:13:02.527Z,15904.00
2018-05-16T07:14:02.753Z,15296.00
2018-05-16T07:15:02.988Z,15168.00
2018-05-16T07:16:03.221Z,15168.00
2018-05-16T07:17:03.455Z,13228.00
2018-05-16T07:18:03.688Z,11256.00
2018-05-16T07:19:03.922Z,8484.00
2018-05-16T07:20:04.155Z,9488.00
2018-05-16T07:21:04.389Z,11828.00
2018-05-16T07:22:04.622Z,11896.00
2018-05-16T07:23:04.852Z,9284.00
2018-05-16T07:24:05.085Z,9496.00
2018-05-16T07:25:05.322Z,10096.00
2018-05-16T07:26:05.556Z,7788.00
2018-05-16T07:27:05.795Z,7548.00
2018-05-16T07:28:06.024Z,6680.00
2018-05-16T07:29:06.259Z,6396.00
2018-05-16T07:30:06.490Z,6504.00
2018-05-16T07:31:06.720Z,6628.00
2018-05-16T07:32:06.952Z,6828.00
2018-05-16T07:33:07.204Z,6916.00
2018-05-16T07:34:07.424Z,7124.00
2018-05-16T07:35:07.664Z,7720.00
2018-05-16T07:36:07.900Z,7336.00
2018-05-16T07:37:08.125Z,7664.00
2018-05-16T07:38:08.353Z,7760.00
2018-05-16T07:39:08.595Z,7188.00
2018-05-16T07:40:08.808Z,7136.00
2018-05-16T07:41:09.101Z,8492.00
2018-05-16T07:42:09.280Z,8464.00
2018-05-16T07:43:09.495Z,8372.00
2018-05-16T07:44:09.727Z,8356.00
2018-05-16T07:45:09.965Z,8136.00
2018-05-16T07:46:10.198Z,7912.00
2018-05-16T07:47:10.482Z,7772.00
2018-05-16T07:48:10.664Z,7012.00
2018-05-16T07:49:10.896Z,7420.00
2018-05-16T07:50:11.129Z,8416.00
2018-05-16T07:51:11.429Z,12196.00
2018-05-16T07:52:11.597Z,10292.00
2018-05-16T07:53:11.830Z,10136.00
2018-05-16T07:54:12.063Z,11936.00
2018-05-16T07:55:12.296Z,11952.00
2018-05-16T07:56:12.531Z,13132.00
2018-05-16T07:57:12.760Z,13356.00
2018-05-16T07:58:12.992Z,13428.00
2018-05-16T07:59:13.227Z,13696.00
2018-05-16T08:00:13.461Z,12668.00
2018-05-16T08:01:13.698Z,13196.00
2018-05-16T08:02:13.924Z,13580.00
2018-05-16T08:03:14.228Z,12920.00
2018-05-16T08:04:14.394Z,12636.00
2018-05-16T08:05:14.625Z,13140.00
2018-05-16T08:06:14.861Z,13020.00
2018-05-16T08:07:15.093Z,13692.00
2018-05-16T08:08:15.327Z,12836.00
2018-05-16T08:09:15.563Z,11420.00
2018-05-16T08:10:15.799Z,11404.00
2018-05-16T08:11:16.025Z,8780.00
2018-05-16T08:12:16.287Z,8904.00
2018-05-16T08:13:16.498Z,9344.00
2018-05-16T08:14:16.731Z,10016.00
2018-05-16T08:15:16.966Z,10352.00
2018-05-16T08:16:17.194Z,10196.00
2018-05-16T08:17:17.430Z,9940.00
2018-05-16T08:18:17.667Z,10136.00
2018-05-16T08:19:17.902Z,9060.00
2018-05-16T08:20:18.137Z,8764.00
2018-05-16T08:21:18.369Z,8404.00
2018-05-16T08:22:18.603Z,8820.00
2018-05-16T08:23:18.838Z,9432.00
2018-05-16T08:24:19.072Z,9720.00
2018-05-16T08:25:19.304Z,10028.00
2018-05-16T08:26:19.537Z,10108.00
2018-05-16T08:27:19.772Z,11068.00
2018-05-16T08:28:20.011Z,9732.00
2018-05-16T08:29:20.243Z,8580.00
2018-05-16T08:30:20.473Z,8520.00
2018-05-16T08:31:20.708Z,8960.00
2018-05-16T08:32:20.942Z,9084.00
2018-05-16T08:33:21.176Z,9480.00
2018-05-16T08:34:21.410Z,9948.00
2018-05-16T08:35:21.644Z,12176.00
2018-05-16T08:36:21.881Z,10320.00
2018-05-16T08:37:22.117Z,10112.00
2018-05-16T08:38:22.351Z,10992.00
2018-05-16T08:39:22.586Z,12552.00
2018-05-16T08:40:22.820Z,11200.00
2018-05-16T08:41:23.053Z,10468.00
2018-05-16T08:42:23.287Z,10708.00
2018-05-16T08:43:23.521Z,10812.00
2018-05-16T08:44:23.753Z,11408.00
2018-05-16T08:45:23.987Z,9652.00
2018-05-16T08:46:24.224Z,9636.00
2018-05-16T08:47:24.454Z,9884.00
2018-05-16T08:48:24.692Z,9952.00
2018-05-16T08:49:24.924Z,10544.00
2018-05-16T08:50:25.158Z,12496.00
2018-05-16T08:51:25.394Z,12920.00
2018-05-16T08:52:25.636Z,11892.00
2018-05-16T08:53:25.859Z,12252.00
2018-05-16T08:54:26.093Z,11472.00
2018-05-16T08:55:26.332Z,10200.00
2018-05-16T08:56:26.560Z,11432.00
2018-05-16T08:57:26.793Z,9876.00
2018-05-16T08:58:27.048Z,10508.00
2018-05-16T08:59:27.281Z,9852.00
2018-05-16T09:00:27.510Z,11352.00
2018-05-16T09:01:27.739Z,9428.00
2018-05-16T09:02:27.974Z,9244.00
2018-05-16T09:03:28.208Z,10888.00
2018-05-16T09:04:28.445Z,10928.00
2018-05-16T09:05:28.680Z,10284.00
2018-05-16T09:06:28.913Z,9852.00
2018-05-16T09:07:29.148Z,7840.00
2018-05-16T09:08:29.383Z,9988.00
2018-05-16T09:09:29.610Z,10132.00
2018-05-16T09:10:29.849Z,8280.00
2018-05-16T09:11:30.081Z,10300.00
2018-05-16T09:12:30.324Z,10512.00
2018-05-16T09:13:30.557Z,10916.00
2018-05-16T09:14:30.790Z,11168.00
2018-05-16T09:15:31.025Z,11300.00
2018-05-16T09:16:31.259Z,11416.00
2018-05-16T09:17:31.494Z,11344.00
2018-05-16T09:18:31.730Z,11228.00
2018-05-16T09:19:31.964Z,11288.00
2018-05-16T09:20:32.200Z,11260.00
2018-05-16T09:21:32.440Z,11296.00
2018-05-16T09:22:32.664Z,11168.00
2018-05-16T09:23:32.899Z,11292.00
2018-05-16T09:24:33.134Z,12008.00
2018-05-16T09:25:33.368Z,12424.00
2018-05-16T09:26:33.605Z,12388.00
2018-05-16T09:27:33.839Z,12440.00
2018-05-16T09:28:34.072Z,12492.00
2018-05-16T09:29:34.310Z,12444.00
2018-05-16T09:30:34.546Z,12656.00
2018-05-16T09:31:34.778Z,12060.00
2018-05-16T09:32:35.037Z,11944.00
2018-05-16T09:33:35.241Z,11436.00
2018-05-16T09:34:35.476Z,10900.00
2018-05-16T09:35:35.717Z,12184.00
2018-05-16T09:36:35.949Z,10844.00
2018-05-16T09:37:36.187Z,11536.00
2018-05-16T09:38:36.420Z,10812.00
2018-05-16T09:39:36.661Z,11160.00
2018-05-16T09:40:36.891Z,11252.00
2018-05-16T09:41:37.127Z,11044.00
2018-05-16T09:42:37.362Z,10844.00
2018-05-16T09:43:37.598Z,10096.00
2018-05-16T09:44:37.832Z,10348.00
2018-05-16T09:45:38.074Z,10528.00
2018-05-16T09:46:38.305Z,10548.00
2018-05-16T09:47:38.536Z,10484.00
2018-05-16T09:48:38.769Z,10424.00
2018-05-16T09:49:39.001Z,10344.00
2018-05-16T09:50:39.241Z,10180.00
2018-05-16T09:51:39.473Z,10140.00
2018-05-16T09:52:39.706Z,10208.00
2018-05-16T09:53:39.944Z,10244.00
2018-05-16T09:54:40.187Z,10432.00
2018-05-16T09:55:40.402Z,10476.00
2018-05-16T09:56:40.639Z,10752.00
2018-05-16T09:57:40.875Z,11004.00
2018-05-16T09:58:41.108Z,11072.00
2018-05-16T09:59:41.346Z,11072.00
2018-05-16T10:00:41.579Z,10796.00
2018-05-16T10:01:41.816Z,10600.00
2018-05-16T10:02:42.120Z,10320.00
2018-05-16T10:03:42.288Z,10296.00
2018-05-16T10:04:42.522Z,10024.00
2018-05-16T10:05:42.759Z,9816.00
2018-05-16T10:06:42.991Z,9500.00
2018-05-16T10:07:43.227Z,9384.00
2018-05-16T10:08:43.463Z,9100.00
2018-05-16T10:09:43.776Z,9136.00
2018-05-16T10:10:43.934Z,8912.00
2018-05-16T10:11:44.171Z,8940.00
2018-05-16T10:12:44.401Z,8864.00
2018-05-16T10:13:44.638Z,8844.00
2018-05-16T10:14:44.874Z,8956.00
2018-05-16T10:15:45.110Z,9132.00
2018-05-16T10:16:45.349Z,9376.00
2018-05-16T10:17:45.584Z,9608.00
2018-05-16T10:18:45.820Z,9732.00
2018-05-16T10:19:46.056Z,9968.00
2018-05-16T10:20:46.311Z,9956.00
2018-05-16T10:21:46.549Z,10296.00
2018-05-16T10:22:46.784Z,10588.00
2018-05-16T10:23:47.023Z,10736.00
2018-05-16T10:24:47.254Z,10892.00
2018-05-16T10:25:47.485Z,11136.00
2018-05-16T10:26:47.725Z,11520.00
2018-05-16T10:27:47.941Z,12108.00
2018-05-16T10:28:48.179Z,12492.00
2018-05-16T10:29:48.409Z,12528.00
2018-05-16T10:30:48.646Z,12600.00
2018-05-16T10:31:48.879Z,12120.00
2018-05-16T10:32:49.124Z,11116.00
2018-05-16T10:33:49.352Z,10968.00
2018-05-16T10:34:49.587Z,11468.00
2018-05-16T10:35:49.820Z,11628.00
2018-05-16T10:36:50.057Z,11992.00
2018-05-16T10:37:50.305Z,11776.00
2018-05-16T10:38:50.546Z,11992.00
2018-05-16T10:39:50.772Z,11920.00
2018-05-16T10:40:51.005Z,11852.00
2018-05-16T10:41:51.239Z,10960.00
2018-05-16T10:42:51.474Z,9904.00
2018-05-16T10:43:51.709Z,9664.00
2018-05-16T10:44:51.946Z,9484.00
2018-05-16T10:45:52.179Z,11196.00
2018-05-16T10:46:52.419Z,9996.00
2018-05-16T10:47:52.658Z,11304.00
2018-05-16T10:48:52.888Z,11336.00
2018-05-16T10:49:53.121Z,9540.00
2018-05-16T10:50:53.354Z,9288.00
2018-05-16T10:51:53.589Z,9124.00
2018-05-16T10:52:53.823Z,9616.00
2018-05-16T10:53:54.057Z,9472.00
2018-05-16T10:54:54.293Z,9204.00
2018-05-16T10:55:54.527Z,11580.00
2018-05-16T10:56:54.765Z,11824.00
2018-05-16T10:57:55.003Z,11724.00
2018-05-16T10:58:55.232Z,12140.00
2018-05-16T10:59:55.474Z,12220.00
2018-05-16T11:00:55.701Z,12436.00
2018-05-16T11:01:55.935Z,12332.00
2018-05-16T11:02:56.171Z,10524.00
2018-05-16T11:03:56.408Z,10188.00
2018-05-16T11:04:56.642Z,10116.00
2018-05-16T11:05:56.876Z,10296.00
2018-05-16T11:06:57.111Z,10328.00
2018-05-16T11:07:57.345Z,10164.00
2018-05-16T11:08:57.583Z,10176.00
2018-05-16T11:09:57.820Z,10288.00
2018-05-16T11:10:58.054Z,10532.00
2018-05-16T11:11:58.290Z,10512.00
2018-05-16T11:12:58.525Z,10660.00
2018-05-16T11:13:58.766Z,11000.00
2018-05-16T11:14:58.998Z,11044.00
2018-05-16T11:15:59.231Z,11020.00
2018-05-16T11:16:59.466Z,10756.00
2018-05-16T11:17:59.703Z,10544.00
2018-05-16T11:18:59.937Z,10016.00
2018-05-16T11:20:00.174Z,8976.00
2018-05-16T11:21:00.412Z,8016.00
2018-05-16T11:22:00.647Z,7416.00
2018-05-16T11:23:00.881Z,7032.00
2018-05-16T11:24:01.116Z,6820.00
2018-05-16T11:25:01.354Z,6636.00
2018-05-16T11:26:01.578Z,6548.00
2018-05-16T11:27:01.827Z,6512.00
2018-05-16T11:28:02.057Z,6608.00
2018-05-16T11:29:02.288Z,6792.00
2018-05-16T11:30:02.529Z,7204.00
2018-05-16T11:31:02.766Z,7836.00
2018-05-16T11:32:03.002Z,8336.00
2018-05-16T11:33:03.237Z,8528.00
2018-05-16T11:34:03.478Z,8576.00
2018-05-16T11:35:03.721Z,8596.00
2018-05-16T11:36:03.951Z,8712.00
2018-05-16T11:37:04.185Z,8976.00
2018-05-16T11:38:07.333Z,9280.00
2018-05-16T11:39:04.688Z,9452.00
2018-05-16T11:40:04.925Z,9544.00
2018-05-16T11:41:05.157Z,9624.00
2018-05-16T11:42:05.395Z,9592.00
2018-05-16T11:43:05.631Z,9536.00
2018-05-16T11:44:05.862Z,9556.00
2018-05-16T11:45:06.110Z,9668.00
2018-05-16T11:46:06.340Z,9884.00
2018-05-16T11:47:27.598Z,10092.00
2018-05-16T11:48:06.794Z,10236.00
2018-05-16T11:49:07.031Z,10236.00
2018-05-16T11:50:07.265Z,10152.00
2018-05-16T11:51:07.502Z,10016.00
2018-05-16T11:52:07.742Z,9880.00
2018-05-16T11:53:07.977Z,9844.00
2018-05-16T11:54:08.214Z,9908.00
2018-05-16T11:55:08.455Z,10036.00
2018-05-16T11:56:08.685Z,10220.00
2018-05-16T11:57:08.919Z,10448.00
2018-05-16T11:58:09.152Z,10848.00
2018-05-16T11:59:09.412Z,11184.00
2018-05-16T12:00:09.627Z,11284.00
2018-05-16T12:01:09.865Z,11124.00
2018-05-16T12:02:10.097Z,10848.00
2018-05-16T12:03:10.352Z,10640.00
2018-05-16T12:04:10.569Z,10504.00
2018-05-16T12:05:10.838Z,10488.00
2018-05-16T12:06:11.044Z,10520.00
2018-05-16T12:07:11.284Z,10208.00
2018-05-16T12:08:11.515Z,9904.00
2018-05-16T12:09:11.768Z,9272.00
2018-05-16T12:10:11.979Z,8436.00
2018-05-16T12:11:12.208Z,7988.00
2018-05-16T12:12:12.447Z,7752.00
2018-05-16T12:13:12.676Z,7796.00
2018-05-16T12:14:12.918Z,8068.00
2018-05-16T12:15:13.152Z,8512.00
2018-05-16T12:16:13.386Z,9032.00
2018-05-16T12:17:13.625Z,9532.00
2018-05-16T12:18:13.851Z,9432.00
2018-05-16T12:19:14.101Z,9024.00
2018-05-16T12:20:14.337Z,8248.00
2018-05-16T12:21:14.578Z,7380.00
2018-05-16T12:22:14.806Z,6268.00